createdAt,value
2019-06-26T00:01:31.900Z,100195.06
2019-06-26T00:03:58.088Z,100191.38
2019-06-26T00:06:24.294Z,100192.56
2019-06-26T00:08:50.444Z,100191.12
2019-06-26T00:11:16.623Z,100186.64
2019-06-26T00:13:42.812Z,100187.13
2019-06-26T00:16:08.971Z,100190.20
2019-06-26T00:18:35.139Z,100188.03
2019-06-26T00:21:01.334Z,100179.73
2019-06-26T00:23:27.508Z,100179.27
2019-06-26T00:25:53.690Z,100184.38
2019-06-26T00:28:19.864Z,100189.56
2019-06-26T00:30:46.042Z,100175.94
2019-06-26T00:33:12.196Z,100182.63
2019-06-26T00:35:38.390Z,100176.94
2019-06-26T00:38:04.572Z,100184.20
2019-06-26T00:40:30.754Z,100172.44
2019-06-26T00:42:56.941Z,100170.83
2019-06-26T00:45:23.097Z,100172.87
2019-06-26T00:47:49.279Z,100168.26
2019-06-26T00:50:15.567Z,100165.73
2019-06-26T00:52:41.858Z,100166.72
2019-06-26T00:55:08.381Z,100164.08
2019-06-26T00:57:34.574Z,100162.69
2019-06-26T01:00:02.627Z,100170.42
2019-06-26T01:02:28.833Z,100168.84
2019-06-26T01:04:59.709Z,100163.44
2019-06-26T01:07:25.866Z,100168.61
2019-06-26T01:09:52.038Z,100158.98
2019-06-26T01:12:18.228Z,100161.95
2019-06-26T01:14:44.375Z,100164.34
2019-06-26T01:17:10.554Z,100173.05
2019-06-26T01:19:37.069Z,100174.20
2019-06-26T01:22:03.493Z,100166.37
2019-06-26T01:24:29.672Z,100169.43
2019-06-26T01:26:55.985Z,100166.14
2019-06-26T01:29:22.134Z,100161.70
2019-06-26T01:31:48.321Z,100161.20
2019-06-26T01:34:14.521Z,100173.64
2019-06-26T01:36:40.669Z,100160.78
2019-06-26T01:39:06.844Z,100168.05
2019-06-26T01:41:33.081Z,100162.76
2019-06-26T01:44:13.684Z,100157.91
2019-06-26T01:46:27.369Z,100159.31
2019-06-26T01:48:53.567Z,100164.70
2019-06-26T01:51:19.747Z,100170.72
2019-06-26T01:53:45.969Z,100171.63
2019-06-26T01:56:12.257Z,100171.91
2019-06-26T01:58:38.416Z,100172.06
2019-06-26T02:01:04.687Z,100163.55
2019-06-26T02:03:30.893Z,100165.30
2019-06-26T02:05:57.042Z,100166.59
2019-06-26T02:08:23.314Z,100170.46
2019-06-26T02:10:49.592Z,100164.98
2019-06-26T02:13:15.797Z,100170.42
2019-06-26T02:15:41.993Z,100170.02
2019-06-26T02:20:48.947Z,100167.20
2019-06-26T02:23:15.164Z,100168.41
2019-06-26T02:25:41.337Z,100167.76
2019-06-26T02:28:07.487Z,100170.81
2019-06-26T02:30:33.699Z,100173.55
2019-06-26T02:32:59.856Z,100173.16
2019-06-26T02:35:26.004Z,100180.23
2019-06-26T02:37:52.206Z,100164.25
2019-06-26T02:40:19.076Z,100180.91
2019-06-26T02:42:45.231Z,100183.13
2019-06-26T02:45:12.022Z,100180.56
2019-06-26T02:47:38.204Z,100180.27
2019-06-26T02:50:05.681Z,100181.78
2019-06-26T02:52:31.903Z,100187.39
2019-06-26T02:54:58.136Z,100193.34
2019-06-26T02:57:24.348Z,100182.13
2019-06-26T02:59:50.581Z,100194.38
2019-06-26T03:02:16.851Z,100188.05
2019-06-26T03:04:42.994Z,100186.58
2019-06-26T03:07:09.263Z,100194.25
2019-06-26T03:09:35.416Z,100196.34
2019-06-26T03:12:01.618Z,100200.09
2019-06-26T03:14:27.845Z,100197.94
2019-06-26T03:16:54.002Z,100193.08
2019-06-26T03:19:20.164Z,100195.37
2019-06-26T03:21:46.531Z,100199.20
2019-06-26T03:24:12.758Z,100200.27
2019-06-26T03:26:38.927Z,100205.41
2019-06-26T03:29:05.253Z,100203.65
2019-06-26T03:31:31.366Z,100202.95
2019-06-26T03:33:57.527Z,100207.81
2019-06-26T03:36:23.744Z,100207.55
2019-06-26T03:38:50.034Z,100206.31
2019-06-26T03:41:16.173Z,100205.64
2019-06-26T03:43:42.358Z,100208.06
2019-06-26T03:46:08.603Z,100211.06
2019-06-26T03:48:34.825Z,100216.94
2019-06-26T03:51:01.166Z,100224.98
2019-06-26T03:53:27.599Z,100229.67
2019-06-26T03:55:53.968Z,100224.34
2019-06-26T03:58:20.183Z,100226.95
2019-06-26T04:00:46.385Z,100233.31
2019-06-26T04:03:12.550Z,100219.96
2019-06-26T04:05:38.765Z,100218.41
2019-06-26T04:08:05.166Z,100218.04
2019-06-26T04:10:31.520Z,100211.52
2019-06-26T04:12:57.720Z,100210.92
2019-06-26T04:15:23.953Z,100211.40
2019-06-26T04:17:50.108Z,100211.66
2019-06-26T04:20:16.347Z,100219.93
2019-06-26T04:22:42.660Z,100219.84
2019-06-26T04:25:08.896Z,100220.23
2019-06-26T04:27:35.108Z,100215.28
2019-06-26T04:30:01.331Z,100223.06
2019-06-26T04:32:27.478Z,100231.53
2019-06-26T04:34:54.627Z,100234.60
2019-06-26T04:37:21.029Z,100235.38
2019-06-26T04:39:47.189Z,100233.42
2019-06-26T04:42:13.386Z,100240.37
2019-06-26T04:44:39.614Z,100238.61
2019-06-26T04:47:05.770Z,100237.63
2019-06-26T04:49:32.073Z,100238.84
2019-06-26T04:51:58.294Z,100246.89
2019-06-26T04:54:24.455Z,100247.84
2019-06-26T04:56:50.666Z,100245.25
2019-06-26T04:59:16.993Z,100239.02
2019-06-26T05:01:43.224Z,100249.86
2019-06-26T05:04:09.500Z,100243.73
2019-06-26T05:06:35.732Z,100258.31
2019-06-26T05:09:01.991Z,100252.44
2019-06-26T05:11:28.186Z,100249.46
2019-06-26T05:13:54.449Z,100248.71
2019-06-26T05:16:20.799Z,100245.46
2019-06-26T05:18:47.072Z,100247.74
2019-06-26T05:21:13.239Z,100255.44
2019-06-26T05:23:39.483Z,100259.16
2019-06-26T05:26:05.650Z,100265.66
2019-06-26T05:28:31.923Z,100264.75
2019-06-26T05:30:58.148Z,100260.33
2019-06-26T05:33:24.591Z,100256.92
2019-06-26T05:35:50.805Z,100257.70
2019-06-26T05:38:16.961Z,100253.14
2019-06-26T05:40:43.153Z,100254.48
2019-06-26T05:43:09.386Z,100252.53
2019-06-26T05:45:35.545Z,100255.95
2019-06-26T05:48:01.766Z,100261.13
2019-06-26T05:50:28.539Z,100274.07
2019-06-26T05:52:54.689Z,100273.55
2019-06-26T05:55:20.871Z,100280.76
2019-06-26T05:57:48.502Z,100277.92
2019-06-26T06:00:15.793Z,100283.91
2019-06-26T06:02:41.967Z,100281.79
2019-06-26T06:05:08.977Z,100281.17
2019-06-26T06:07:35.103Z,100285.37
2019-06-26T06:10:01.487Z,100296.47
2019-06-26T06:12:27.660Z,100302.16
2019-06-26T06:14:53.836Z,100289.00
2019-06-26T06:17:20.033Z,100291.22
2019-06-26T06:19:46.194Z,100289.59
2019-06-26T06:22:12.365Z,100279.66
2019-06-26T06:24:38.576Z,100273.80
2019-06-26T06:27:04.725Z,100277.38
2019-06-26T06:29:30.981Z,100272.89
2019-06-26T06:31:57.180Z,100272.93
2019-06-26T06:34:23.360Z,100264.49
2019-06-26T06:36:49.543Z,100268.55
2019-06-26T06:39:15.741Z,100269.49
2019-06-26T06:41:43.452Z,100271.06
2019-06-26T06:44:09.972Z,100265.44
2019-06-26T06:46:36.164Z,100265.73
2019-06-26T06:49:02.326Z,100272.32
2019-06-26T06:51:28.495Z,100269.00
2019-06-26T06:53:54.688Z,100269.38
2019-06-26T06:56:20.871Z,100269.93
2019-06-26T06:58:47.102Z,100270.70
2019-06-26T07:01:13.286Z,100263.70
2019-06-26T07:03:39.462Z,100272.31
2019-06-26T07:06:05.627Z,100282.22
2019-06-26T07:08:31.825Z,100277.19
2019-06-26T07:10:58.202Z,100276.39
2019-06-26T07:13:24.377Z,100270.22
2019-06-26T07:15:50.810Z,100273.73
2019-06-26T07:18:17.150Z,100274.67
2019-06-26T07:20:44.702Z,100275.88
2019-06-26T07:23:11.240Z,100260.56
2019-06-26T07:25:37.431Z,100262.14
2019-06-26T07:28:03.642Z,100269.98
2019-06-26T07:30:29.908Z,100262.03
2019-06-26T07:32:56.092Z,100278.95
2019-06-26T07:35:22.349Z,100276.91
2019-06-26T07:37:48.646Z,100283.58
2019-06-26T07:40:15.923Z,100283.00
2019-06-26T07:42:42.401Z,100288.11
2019-06-26T07:45:09.789Z,100277.96
2019-06-26T07:47:43.356Z,100283.53
2019-06-26T07:50:05.324Z,100290.70
2019-06-26T07:52:31.637Z,100286.80
2019-06-26T07:54:57.781Z,100281.51
2019-06-26T07:57:23.935Z,100286.56
2019-06-26T07:59:50.215Z,100290.05
2019-06-26T08:02:16.373Z,100291.00
2019-06-26T08:04:42.547Z,100287.87
2019-06-26T08:07:08.764Z,100283.36
2019-06-26T08:09:34.901Z,100281.58
2019-06-26T08:12:01.078Z,100288.81
2019-06-26T08:14:27.269Z,100281.05
2019-06-26T08:16:53.597Z,100277.17
2019-06-26T08:19:19.779Z,100274.94
2019-06-26T08:21:46.844Z,100277.34
2019-06-26T08:24:13.290Z,100280.89
2019-06-26T08:26:39.509Z,100275.48
2019-06-26T08:29:05.768Z,100285.89
2019-06-26T08:31:31.921Z,100288.30
2019-06-26T08:34:00.511Z,100294.80
2019-06-26T08:36:26.771Z,100296.34
2019-06-26T08:38:52.928Z,100288.38
2019-06-26T08:41:19.122Z,100282.69
2019-06-26T08:43:45.289Z,100292.93
2019-06-26T08:46:11.443Z,100288.36
2019-06-26T08:48:40.259Z,100289.31
2019-06-26T08:51:05.720Z,100282.78
2019-06-26T08:53:31.868Z,100293.86
2019-06-26T08:55:58.025Z,100286.70
2019-06-26T08:58:24.234Z,100287.52
2019-06-26T09:00:50.562Z,100280.84
2019-06-26T09:03:16.754Z,100281.57
2019-06-26T09:05:48.122Z,100274.86
2019-06-26T09:08:11.168Z,100267.94
2019-06-26T09:10:37.473Z,100272.19
2019-06-26T09:13:04.643Z,100274.00
2019-06-26T09:15:30.819Z,100273.30
2019-06-26T09:17:57.057Z,100274.14
2019-06-26T09:20:37.978Z,100267.20
2019-06-26T09:23:04.137Z,100269.78
2019-06-26T09:25:30.300Z,100259.83
2019-06-26T09:27:56.497Z,100265.49
2019-06-26T09:30:22.650Z,100271.64
2019-06-26T09:32:48.815Z,100265.67
2019-06-26T09:35:15.019Z,100269.80
2019-06-26T09:37:41.266Z,100272.11
2019-06-26T09:40:08.544Z,100279.86
2019-06-26T09:42:37.806Z,100276.42
2019-06-26T09:45:05.666Z,100266.36
2019-06-26T09:47:31.833Z,100255.59
2019-06-26T09:49:58.057Z,100253.03
2019-06-26T09:52:24.217Z,100260.56
2019-06-26T09:54:50.368Z,100251.09
2019-06-26T09:57:16.581Z,100240.25
2019-06-26T09:59:43.723Z,100237.39
2019-06-26T10:02:09.980Z,100230.19
2019-06-26T10:04:36.182Z,100226.09
2019-06-26T10:07:02.336Z,100221.23
2019-06-26T10:09:28.501Z,100228.42
2019-06-26T10:11:54.895Z,100210.81
2019-06-26T10:14:21.064Z,100211.13
2019-06-26T10:16:47.222Z,100202.30
2019-06-26T10:19:13.930Z,100194.11
2019-06-26T10:21:40.066Z,100188.84
2019-06-26T10:24:06.229Z,100188.84
2019-06-26T10:26:32.803Z,100184.84
2019-06-26T10:28:59.230Z,100170.47
2019-06-26T10:31:25.393Z,100171.98
2019-06-26T10:33:51.615Z,100174.23
2019-06-26T10:36:17.798Z,100173.05
2019-06-26T10:38:43.963Z,100171.66
2019-06-26T10:41:10.180Z,100168.16
2019-06-26T10:43:36.356Z,100165.31
2019-06-26T10:46:03.623Z,100166.48
2019-06-26T10:48:29.929Z,100161.16
2019-06-26T10:50:58.837Z,100160.70
2019-06-26T10:53:24.264Z,100173.39
2019-06-26T10:55:50.476Z,100171.25
2019-06-26T10:58:16.649Z,100178.72
2019-06-26T11:00:42.825Z,100176.53
2019-06-26T11:03:09.033Z,100159.17
2019-06-26T11:05:35.221Z,100170.36
2019-06-26T11:08:01.378Z,100179.53
2019-06-26T11:10:27.592Z,100166.80
2019-06-26T11:12:53.778Z,100172.65
2019-06-26T11:15:19.952Z,100157.50
2019-06-26T11:17:46.196Z,100155.27
2019-06-26T11:20:12.871Z,100151.39
2019-06-26T11:22:39.287Z,100144.09
2019-06-26T11:25:06.427Z,100136.25
2019-06-26T11:27:32.610Z,100123.53
2019-06-26T11:29:58.765Z,100133.29
2019-06-26T11:32:26.824Z,100132.72
2019-06-26T11:34:53.022Z,100137.91
2019-06-26T11:37:22.816Z,100138.66
2019-06-26T11:39:47.482Z,100147.12
2019-06-26T11:42:13.700Z,100142.37
2019-06-26T11:44:39.922Z,100128.98
2019-06-26T11:47:09.168Z,100129.84
2019-06-26T11:49:35.325Z,100119.68
2019-06-26T11:52:01.522Z,100112.52
2019-06-26T11:54:27.812Z,100089.02
2019-06-26T11:56:53.980Z,100078.86
2019-06-26T11:59:20.128Z,100068.12
2019-06-26T12:01:46.346Z,100061.37
2019-06-26T12:04:12.584Z,100061.77
2019-06-26T12:06:38.721Z,100062.80
2019-06-26T12:09:06.635Z,100057.89
2019-06-26T12:11:32.918Z,100060.72
2019-06-26T12:13:59.093Z,100058.57
2019-06-26T12:16:25.302Z,100058.75
2019-06-26T12:18:51.452Z,100075.73
2019-06-26T12:21:17.620Z,100074.23
2019-06-26T12:23:47.418Z,100070.41
2019-06-26T12:26:13.877Z,100085.85
2019-06-26T12:28:43.015Z,100085.85
2019-06-26T12:31:09.195Z,100087.25
2019-06-26T12:33:35.386Z,100078.63
2019-06-26T12:36:01.541Z,100075.07
2019-06-26T12:38:27.744Z,100077.84
2019-06-26T12:40:53.905Z,100078.13
2019-06-26T12:43:20.263Z,100070.28
2019-06-26T12:45:46.502Z,100059.11
2019-06-26T12:48:16.013Z,100045.42
2019-06-26T12:50:40.752Z,100055.91
2019-06-26T12:53:06.942Z,100052.39
2019-06-26T12:55:33.303Z,100048.70
2019-06-26T12:58:12.561Z,100050.48
2019-06-26T13:00:27.571Z,100045.68
2019-06-26T13:02:53.740Z,100041.89
2019-06-26T13:05:19.972Z,100029.92
2019-06-26T13:07:46.150Z,100040.26
2019-06-26T13:10:12.699Z,100030.28
2019-06-26T13:12:40.958Z,100018.55
2019-06-26T13:15:08.735Z,100020.92
2019-06-26T13:17:34.907Z,100027.79
2019-06-26T13:20:01.426Z,100030.59
2019-06-26T13:22:27.659Z,100029.64
2019-06-26T13:24:53.828Z,100045.53
2019-06-26T13:27:19.979Z,100051.68
2019-06-26T13:29:46.172Z,100046.43
2019-06-26T13:32:12.334Z,100041.88
2019-06-26T13:34:38.480Z,100039.19
2019-06-26T13:37:07.320Z,100031.41
2019-06-26T13:39:32.752Z,100044.09
2019-06-26T13:41:59.021Z,100039.97
2019-06-26T13:44:25.358Z,100047.97
2019-06-26T13:46:51.505Z,100035.66
2019-06-26T13:49:17.681Z,100055.05
2019-06-26T13:51:43.859Z,100082.98
2019-06-26T13:54:10.075Z,100093.05
2019-06-26T13:56:36.303Z,100096.69
2019-06-26T13:59:02.519Z,100114.08
2019-06-26T14:01:29.085Z,100123.36
2019-06-26T14:03:55.254Z,100122.59
2019-06-26T14:06:21.456Z,100125.39
2019-06-26T14:08:47.613Z,100123.20
2019-06-26T14:11:13.781Z,100146.14
2019-06-26T14:13:41.890Z,100168.86
2019-06-26T14:16:08.075Z,100176.90
2019-06-26T14:18:34.230Z,100186.50
2019-06-26T14:21:00.524Z,100177.55
2019-06-26T14:23:26.768Z,100166.11
2019-06-26T14:25:52.947Z,100130.37
2019-06-26T14:28:19.837Z,100123.06
2019-06-26T14:30:46.317Z,100126.16
2019-06-26T14:33:12.480Z,100125.92
2019-06-26T14:35:38.674Z,100134.27
2019-06-26T14:38:04.835Z,100139.92
2019-06-26T14:40:30.997Z,100138.45
2019-06-26T14:42:57.182Z,100126.20
2019-06-26T14:45:23.446Z,100117.36
2019-06-26T14:47:49.620Z,100107.50
2019-06-26T14:50:16.507Z,100109.11
2019-06-26T14:52:45.847Z,100114.73
2019-06-26T14:55:19.252Z,100090.09
2019-06-26T14:57:52.035Z,100094.64
2019-06-26T15:00:18.770Z,100088.16
2019-06-26T15:02:44.974Z,100085.44
2019-06-26T15:05:12.545Z,100083.89
2019-06-26T15:07:38.754Z,100077.47
2019-06-26T15:10:07.070Z,100077.63
2019-06-26T15:12:33.231Z,100059.97
2019-06-26T15:14:59.380Z,100062.12
2019-06-26T15:17:25.656Z,100066.45
2019-06-26T15:19:51.855Z,100080.11
2019-06-26T15:22:18.009Z,100091.02
2019-06-26T15:24:44.278Z,100090.24
2019-06-26T15:27:10.485Z,100094.36
2019-06-26T15:29:36.639Z,100104.16
2019-06-26T15:32:02.861Z,100114.95
2019-06-26T15:34:29.037Z,100127.59
2019-06-26T15:36:55.217Z,100111.14
2019-06-26T15:39:21.419Z,100108.67
2019-06-26T15:41:47.703Z,100108.27
2019-06-26T15:44:13.877Z,100104.59
2019-06-26T15:46:40.073Z,100105.66
2019-06-26T15:49:06.254Z,100089.31
2019-06-26T15:51:32.405Z,100072.75
2019-06-26T15:54:00.053Z,100069.09
2019-06-26T15:56:26.579Z,100069.95
2019-06-26T15:58:52.741Z,100073.19
2019-06-26T16:01:18.955Z,100068.48
2019-06-26T16:03:45.142Z,100074.72
2019-06-26T16:06:11.316Z,100077.84
2019-06-26T16:08:37.559Z,100077.06
2019-06-26T16:11:03.713Z,100073.00
2019-06-26T16:13:29.857Z,100067.67
2019-06-26T16:15:56.083Z,100074.11
2019-06-26T16:18:26.914Z,100069.58
2019-06-26T16:20:53.063Z,100079.41
2019-06-26T16:23:19.476Z,100074.56
2019-06-26T16:25:45.646Z,100069.45
2019-06-26T16:28:11.807Z,100067.66
2019-06-26T16:30:38.021Z,100084.49
2019-06-26T16:33:04.212Z,100086.78
2019-06-26T16:35:30.367Z,100084.94
2019-06-26T16:37:56.557Z,100083.23
2019-06-26T16:40:22.731Z,100073.02
2019-06-26T16:42:49.006Z,100077.04
2019-06-26T16:45:15.703Z,100080.05
2019-06-26T16:47:41.869Z,100081.23
2019-06-26T16:50:08.224Z,100071.48
2019-06-26T16:52:47.905Z,100081.62
2019-06-26T16:55:04.829Z,100080.66
2019-06-26T16:57:31.005Z,100085.13
2019-06-26T17:00:08.838Z,100078.70
2019-06-26T17:02:25.235Z,100071.08
2019-06-26T17:04:51.424Z,100059.89
2019-06-26T17:07:18.399Z,100068.91
2019-06-26T17:09:44.577Z,100072.78
2019-06-26T17:12:10.745Z,100070.61
2019-06-26T17:14:37.057Z,100062.20
2019-06-26T17:17:03.235Z,100059.64
2019-06-26T17:19:29.387Z,100054.67
2019-06-26T17:21:55.572Z,100056.35
2019-06-26T17:24:21.757Z,100055.66
2019-06-26T17:26:47.910Z,100048.05
2019-06-26T17:29:14.114Z,100051.39
2019-06-26T17:31:40.312Z,100049.66
2019-06-26T17:34:09.015Z,100051.85
2019-06-26T17:36:35.198Z,100049.70
2019-06-26T17:39:01.379Z,100052.81
2019-06-26T17:41:27.568Z,100046.48
2019-06-26T17:43:53.756Z,100049.63
2019-06-26T17:46:19.927Z,100050.23
2019-06-26T17:48:46.082Z,100054.45
2019-06-26T17:51:12.328Z,100052.69
2019-06-26T17:53:38.522Z,100055.07
2019-06-26T17:56:04.877Z,100061.50
2019-06-26T17:58:33.636Z,100067.55
2019-06-26T18:00:59.891Z,100059.56
2019-06-26T18:03:26.075Z,100061.02
2019-06-26T18:05:52.533Z,100060.22
2019-06-26T18:08:19.018Z,100069.17
2019-06-26T18:10:47.209Z,100062.14
2019-06-26T18:13:13.381Z,100064.88
2019-06-26T18:15:39.525Z,100063.48
2019-06-26T18:18:05.697Z,100064.60
2019-06-26T18:20:31.910Z,100066.02
2019-06-26T18:23:07.047Z,100067.30
2019-06-26T18:25:26.378Z,100067.42
2019-06-26T18:27:52.599Z,100070.27
2019-06-26T18:30:22.471Z,100069.25
2019-06-26T18:32:47.209Z,100072.94
2019-06-26T18:35:13.402Z,100068.81
2019-06-26T18:37:39.686Z,100070.13
2019-06-26T18:40:06.563Z,100076.85
2019-06-26T18:42:32.755Z,100081.02
2019-06-26T18:44:58.929Z,100082.06
2019-06-26T18:47:25.084Z,100083.20
2019-06-26T18:49:51.271Z,100076.29
2019-06-26T18:52:17.442Z,100079.75
2019-06-26T18:54:43.612Z,100076.64
2019-06-26T18:57:09.802Z,100075.15
2019-06-26T18:59:35.955Z,100080.70
2019-06-26T19:02:02.260Z,100082.67
2019-06-26T19:04:28.447Z,100088.08
2019-06-26T19:06:54.622Z,100082.30
2019-06-26T19:09:20.794Z,100082.78
2019-06-26T19:11:47.033Z,100083.77
2019-06-26T19:14:13.194Z,100080.77
2019-06-26T19:16:39.365Z,100081.78
2019-06-26T19:19:05.575Z,100082.12
2019-06-26T19:21:31.732Z,100088.45
2019-06-26T19:24:09.736Z,100080.09
2019-06-26T19:26:26.302Z,100084.60
2019-06-26T19:28:52.456Z,100077.95
2019-06-26T19:31:18.632Z,100068.91
2019-06-26T19:33:45.736Z,100076.55
2019-06-26T19:36:12.108Z,100076.62
2019-06-26T19:38:38.265Z,100078.28
2019-06-26T19:41:08.218Z,100079.18
2019-06-26T19:43:32.579Z,100072.30
2019-06-26T19:45:58.801Z,100082.14
2019-06-26T19:48:25.002Z,100075.84
2019-06-26T19:50:51.162Z,100075.05
2019-06-26T19:53:17.334Z,100076.70
2019-06-26T19:55:43.522Z,100073.59
2019-06-26T19:58:09.677Z,100070.59
2019-06-26T20:00:35.863Z,100068.16
2019-06-26T20:03:02.050Z,100066.88
2019-06-26T20:05:28.727Z,100066.11
2019-06-26T20:07:56.226Z,100075.19
2019-06-26T20:10:27.326Z,100065.03
2019-06-26T20:13:00.739Z,100064.44
2019-06-26T20:15:27.985Z,100062.95
2019-06-26T20:17:54.756Z,100062.30
2019-06-26T20:20:23.768Z,100055.75
2019-06-26T20:22:50.957Z,100062.31
2019-06-26T20:25:22.659Z,100062.73
2019-06-26T20:27:49.659Z,100066.16
2019-06-26T20:30:21.419Z,100062.28
2019-06-26T20:32:48.628Z,100070.36
2019-06-26T20:35:15.266Z,100065.69
2019-06-26T20:37:43.897Z,100070.74
2019-06-26T20:40:14.355Z,100063.49
2019-06-26T20:42:43.165Z,100066.91
2019-06-26T20:45:15.217Z,100065.02
2019-06-26T20:47:42.728Z,100069.21
2019-06-26T20:50:09.907Z,100064.03
2019-06-26T20:52:37.986Z,100059.73
2019-06-26T20:55:08.149Z,100053.14
2019-06-26T20:57:42.666Z,100057.66
2019-06-26T21:00:11.059Z,100057.33
2019-06-26T21:02:43.477Z,100066.22
2019-06-26T21:05:12.355Z,100053.56
2019-06-26T21:10:31.387Z,100049.80
2019-06-26T21:13:04.333Z,100052.70
2019-06-26T21:15:31.536Z,100054.53
2019-06-26T21:18:01.525Z,100049.69
2019-06-26T21:20:30.383Z,100048.75
2019-06-26T21:23:00.225Z,100045.70
2019-06-26T21:25:26.633Z,100045.69
2019-06-26T21:27:54.799Z,100048.72
2019-06-26T21:30:22.166Z,100052.84
2019-06-26T21:32:51.633Z,100046.86
2019-06-26T21:35:19.899Z,100047.23
2019-06-26T21:37:47.965Z,100044.64
2019-06-26T21:40:16.107Z,100046.48
2019-06-26T21:42:42.622Z,100041.49
2019-06-26T21:45:09.355Z,100043.80
2019-06-26T21:47:40.564Z,100041.98
2019-06-26T21:50:11.301Z,100039.61
2019-06-26T21:52:37.605Z,100050.14
2019-06-26T21:55:09.481Z,100039.70
2019-06-26T21:57:38.725Z,100045.15
2019-06-26T22:00:09.455Z,100050.05
2019-06-26T22:02:35.823Z,100051.73
2019-06-26T22:05:09.723Z,100046.30
2019-06-26T22:07:35.912Z,100045.52
2019-06-26T22:10:05.499Z,100049.93
2019-06-26T22:12:31.668Z,100043.68
2019-06-26T22:14:57.867Z,100044.15
2019-06-26T22:17:24.012Z,100043.75
2019-06-26T22:19:50.266Z,100042.26
2019-06-26T22:22:16.457Z,100036.70
2019-06-26T22:24:42.996Z,100034.73
2019-06-26T22:27:09.256Z,100031.30
2019-06-26T22:29:35.445Z,100033.58
2019-06-26T22:32:01.713Z,100025.28
2019-06-26T22:34:27.867Z,100020.09
2019-06-26T22:36:54.244Z,100018.77
2019-06-26T22:39:20.602Z,100016.27
2019-06-26T22:41:46.764Z,100015.45
2019-06-26T22:44:13.058Z,100018.22
2019-06-26T22:46:39.223Z,100014.09
2019-06-26T22:49:05.396Z,100010.28
2019-06-26T22:51:31.633Z,100004.67
2019-06-26T22:53:57.871Z,100008.48
2019-06-26T22:56:24.366Z,100001.32
2019-06-26T22:58:50.614Z,100001.84
2019-06-26T23:01:16.874Z,99995.30
2019-06-26T23:03:43.079Z,99998.52
2019-06-26T23:06:09.277Z,100000.97
2019-06-26T23:08:35.543Z,99996.59
2019-06-26T23:11:01.771Z,99993.30
2019-06-26T23:13:27.992Z,99992.69
2019-06-26T23:15:54.155Z,99993.49
2019-06-26T23:18:20.457Z,99990.83
2019-06-26T23:20:46.652Z,99991.48
2019-06-26T23:23:12.910Z,99992.59
2019-06-26T23:25:39.137Z,99985.67
2019-06-26T23:28:05.359Z,99993.20
2019-06-26T23:30:31.520Z,99998.12
2019-06-26T23:32:57.722Z,99996.96
2019-06-26T23:35:24.053Z,99990.34
2019-06-26T23:37:50.271Z,99994.83
2019-06-26T23:40:16.505Z,100000.92
2019-06-26T23:42:42.726Z,99989.06
2019-06-26T23:45:09.591Z,99989.69
2019-06-26T23:47:35.803Z,99991.90
2019-06-26T23:50:03.198Z,99991.27
2019-06-26T23:52:29.487Z,99994.84
2019-06-26T23:54:55.717Z,99999.02
2019-06-26T23:57:21.910Z,99995.73
2019-06-26T23:59:48.171Z,99991.67
